Time;durP1;ratioP1;P1;durP2;ratioP2;P2;SDS_P1;SDS_P2;PMS_P1;PMS_P2;Temp;Humidity;BMP_temperature;BMP_pressure;BME280_temperature;BME280_humidity;BME280_pressure;Samples;Min_cycle;Max_cycle;Signal;HPM_P1;HPM_P2
2021/09/18 00:01:56;;;;;;;1.58;1.48;;;;;;;16.88;73.00;100745.38;5072649;28;20095;-48
2021/09/18 00:04:22;;;;;;;1.55;1.45;;;;;;;16.88;73.19;100737.38;5072113;28;20036;-45
2021/09/18 00:06:48;;;;;;;1.45;1.35;;;;;;;16.88;73.01;100740.06;5071398;28;20081;-45
2021/09/18 00:09:14;;;;;;;1.50;1.40;;;;;;;16.88;73.05;100745.38;5072111;28;20024;-45
2021/09/18 00:11:39;;;;;;;1.50;1.40;;;;;;;16.87;73.09;100733.84;5072840;28;20020;-47
2021/09/18 00:14:05;;;;;;;1.50;1.40;;;;;;;16.87;73.09;100738.31;5072195;28;20111;-46
2021/09/18 00:16:31;;;;;;;1.50;1.38;;;;;;;16.88;72.89;100732.06;5072488;28;20394;-46
2021/09/18 00:18:57;;;;;;;1.38;1.27;;;;;;;16.90;73.05;100732.88;5054236;28;20474;-47
2021/09/18 00:21:23;;;;;;;1.38;1.27;;;;;;;16.89;73.10;100731.13;5072350;28;20029;-47
2021/09/18 00:23:49;;;;;;;1.27;1.17;;;;;;;16.86;73.14;100732.13;5071646;28;20111;-48
2021/09/18 00:26:15;;;;;;;1.38;1.27;;;;;;;16.88;73.03;100729.41;5072420;28;20390;-45
2021/09/18 00:28:41;;;;;;;1.30;1.20;;;;;;;16.88;72.93;100730.25;5072055;28;20031;-45
2021/09/18 00:31:07;;;;;;;1.20;1.10;;;;;;;16.89;72.83;100737.34;5072166;28;20035;-47
2021/09/18 00:33:33;;;;;;;1.50;1.40;;;;;;;16.87;72.90;100736.50;5072267;28;20031;-46
2021/09/18 00:35:59;;;;;;;1.20;1.10;;;;;;;16.86;72.84;100742.78;5072042;28;20031;-46
2021/09/18 00:38:24;;;;;;;1.23;1.08;;;;;;;16.87;72.86;100738.31;5071552;28;20459;-47
2021/09/18 00:40:51;;;;;;;1.58;1.48;;;;;;;16.87;72.88;100746.31;5072241;28;20529;-46
2021/09/18 00:43:17;;;;;;;1.30;1.20;;;;;;;16.87;72.51;100738.31;5071792;28;20031;-47
2021/09/18 00:45:42;;;;;;;1.10;1.10;;;;;;;16.90;72.70;100749.72;5072119;28;20020;-46
2021/09/18 00:48:08;;;;;;;3.00;1.13;;;;;;;16.91;72.53;100753.28;5072925;28;20031;-45
2021/09/18 00:50:34;;;;;;;1.48;1.27;;;;;;;16.90;72.48;100749.72;5071283;28;20070;-46
2021/09/18 00:53:00;;;;;;;1.05;1.00;;;;;;;16.90;72.48;100752.41;5071936;28;20078;-45
2021/09/18 00:55:27;;;;;;;1.35;1.05;;;;;;;16.90;72.58;100749.72;5070276;28;20024;-45
2021/09/18 00:57:53;;;;;;;1.20;1.10;;;;;;;16.91;72.60;100745.28;5071057;28;20074;-45
2021/09/18 01:00:19;;;;;;;1.20;1.10;;;;;;;16.90;72.60;100748.84;5071438;28;20024;-47
2021/09/18 01:02:45;;;;;;;1.00;1.00;;;;;;;16.90;72.58;100748.84;5071179;28;20089;-45
2021/09/18 01:05:11;;;;;;;1.00;0.90;;;;;;;16.89;72.62;100753.31;5071482;28;20390;-45
2021/09/18 01:07:37;;;;;;;0.90;0.90;;;;;;;16.90;72.50;100744.41;5071179;28;20077;-45
2021/09/18 01:10:05;;;;;;;0.95;0.93;;;;;;;16.91;72.63;100750.63;5071236;28;20099;-45
2021/09/18 01:12:31;;;;;;;0.80;0.80;;;;;;;16.90;72.46;100749.72;5071699;28;20095;-46
2021/09/18 01:14:57;;;;;;;1.00;0.90;;;;;;;16.89;72.47;100755.09;5071445;28;20099;-46
2021/09/18 01:17:23;;;;;;;1.00;1.00;;;;;;;16.87;72.60;100746.31;5070669;28;20032;-46
2021/09/18 01:19:48;;;;;;;1.20;1.10;;;;;;;16.88;72.59;100756.03;5071056;28;20034;-46
2021/09/18 01:22:19;;;;;;;1.73;1.20;;;;;;;16.88;72.60;100756.03;5071052;28;20133;-46
2021/09/18 01:24:44;;;;;;;1.10;1.00;;;;;;;16.88;72.40;100746.22;5071092;28;20017;-46
2021/09/18 01:27:11;;;;;;;1.27;0.85;;;;;;;16.87;72.43;100754.31;5071283;28;20020;-46
2021/09/18 01:29:37;;;;;;;2.05;0.85;;;;;;;16.86;72.56;100752.53;5070792;28;20019;-46
2021/09/18 01:32:03;;;;;;;2.38;0.80;;;;;;;16.85;72.62;100748.16;5052843;28;20021;-49
2021/09/18 01:34:29;;;;;;;0.75;0.75;;;;;;;16.87;72.55;100749.81;5070944;28;20187;-46
2021/09/18 01:36:54;;;;;;;0.70;0.70;;;;;;;16.84;72.58;100747.25;5071739;28;20660;-45
2021/09/18 01:39:22;;;;;;;0.80;0.80;;;;;;;16.87;72.46;100751.66;5070535;28;20105;-45
2021/09/18 01:41:48;;;;;;;0.88;0.88;;;;;;;16.86;72.36;100752.53;5071145;28;20050;-46
2021/09/18 01:44:15;;;;;;;1.10;1.10;;;;;;;16.85;72.58;100750.81;5070809;28;20071;-45
2021/09/18 01:46:42;;;;;;;0.80;0.80;;;;;;;16.84;72.55;100749.06;5054166;28;20086;-46
2021/09/18 01:49:15;;;;;;;2.05;0.88;;;;;;;16.84;72.44;100741.09;5069343;28;20024;-46
2021/09/18 01:51:43;;;;;;;1.15;0.90;;;;;;;16.86;72.45;100747.22;5070949;28;20021;-46
2021/09/18 01:54:10;;;;;;;0.93;0.90;;;;;;;16.85;72.52;100746.38;5070370;28;20020;-45
2021/09/18 01:56:36;;;;;;;0.95;0.95;;;;;;;16.84;72.34;100738.44;5072842;28;20363;-46
2021/09/18 01:59:02;;;;;;;0.90;0.90;;;;;;;16.84;72.56;100738.44;5070337;28;20024;-46
2021/09/18 02:01:28;;;;;;;0.80;0.80;;;;;;;16.84;72.30;100727.78;5074368;28;20024;-46
2021/09/18 02:03:53;;;;;;;0.90;0.90;;;;;;;16.83;72.34;100726.88;5070545;28;20032;-45
2021/09/18 02:06:19;;;;;;;0.75;0.70;;;;;;;16.83;72.31;100732.22;5070294;28;20017;-47
2021/09/18 02:08:45;;;;;;;0.98;0.80;;;;;;;16.83;72.49;100728.66;5069776;28;20027;-45
2021/09/18 02:11:11;;;;;;;0.90;0.90;;;;;;;16.82;72.50;100726.94;5070322;28;20027;-45
2021/09/18 02:13:37;;;;;;;1.00;0.82;;;;;;;16.82;72.29;100735.81;5052393;28;20020;-44
2021/09/18 02:16:03;;;;;;;0.98;0.88;;;;;;;16.82;72.52;100738.47;5052413;28;20476;-48
2021/09/18 02:18:29;;;;;;;1.02;0.93;;;;;;;16.82;72.48;100732.25;5069864;28;20073;-47
2021/09/18 02:20:54;;;;;;;1.05;1.00;;;;;;;16.82;72.27;100729.59;5070124;28;20502;-46
2021/09/18 02:23:20;;;;;;;0.90;0.80;;;;;;;16.81;72.27;100734.06;5069993;28;20123;-45
2021/09/18 02:25:46;;;;;;;0.75;0.75;;;;;;;16.81;72.23;100734.06;5070458;28;20478;-46
2021/09/18 02:28:12;;;;;;;0.73;0.73;;;;;;;16.82;72.30;100740.25;5069749;28;20444;-46
2021/09/18 02:30:38;;;;;;;1.15;1.00;;;;;;;16.80;72.29;100732.31;5070917;28;20025;-46
2021/09/18 02:33:05;;;;;;;0.80;0.80;;;;;;;16.79;72.35;100736.78;5069640;28;20050;-46
2021/09/18 02:35:32;;;;;;;1.48;0.85;;;;;;;16.79;72.05;100739.44;5070357;28;20032;-46
2021/09/18 02:37:59;;;;;;;0.93;0.75;;;;;;;16.80;72.32;100742.97;5068944;28;20090;-46
2021/09/18 02:40:26;;;;;;;0.77;0.77;;;;;;;16.80;72.21;100741.19;5069994;28;20021;-44
2021/09/18 02:42:54;;;;;;;0.60;0.60;;;;;;;16.79;72.15;100736.78;5051824;28;20020;-45
2021/09/18 02:45:21;;;;;;;0.80;0.80;;;;;;;16.79;72.23;100736.78;5069851;28;20359;-47
2021/09/18 02:47:47;;;;;;;0.65;0.65;;;;;;;16.78;72.17;100740.34;5069936;28;20021;-45
2021/09/18 02:50:15;;;;;;;0.70;0.70;;;;;;;16.78;72.25;100737.69;5069810;28;20027;-45
2021/09/18 02:52:41;;;;;;;0.60;0.60;;;;;;;16.77;72.29;100738.63;5069917;28;20020;-45
2021/09/18 02:55:08;;;;;;;0.68;0.68;;;;;;;16.77;72.26;100735.06;5069741;28;20500;-45
2021/09/18 02:57:34;;;;;;;0.80;0.80;;;;;;;16.76;72.15;100736.88;5069279;28;20099;-46
2021/09/18 03:00:00;;;;;;;0.75;0.70;;;;;;;16.75;72.19;100727.16;5069818;28;20409;-50
2021/09/18 03:02:26;;;;;;;0.73;0.63;;;;;;;16.76;72.18;100726.25;5069468;28;20025;-47
2021/09/18 03:04:51;;;;;;;0.80;0.80;;;;;;;16.77;72.39;100732.41;5070185;28;20096;-45
2021/09/18 03:07:17;;;;;;;1.00;0.93;;;;;;;16.75;72.30;100727.16;5069420;28;20016;-46
2021/09/18 03:09:43;;;;;;;0.80;0.80;;;;;;;16.75;72.25;100729.84;5051408;28;20571;-45
2021/09/18 03:12:09;;;;;;;0.60;0.60;;;;;;;16.75;72.16;100732.50;5069526;28;20432;-45
2021/09/18 03:14:35;;;;;;;0.73;0.60;;;;;;;16.76;72.30;100730.69;5069481;28;20496;-47
2021/09/18 03:17:01;;;;;;;0.65;0.65;;;;;;;16.75;72.34;100735.16;5069596;28;20017;-46
2021/09/18 03:19:26;;;;;;;0.68;0.63;;;;;;;16.75;72.08;100723.63;5073368;28;20652;-44
2021/09/18 03:21:52;;;;;;;0.70;0.70;;;;;;;16.74;72.20;100733.41;5076469;28;20021;-45
2021/09/18 03:24:18;;;;;;;0.77;0.77;;;;;;;16.73;72.25;100731.66;5073507;28;20099;-45
2021/09/18 03:26:44;;;;;;;0.60;0.60;;;;;;;16.74;72.20;100728.06;5073513;28;20040;-45
2021/09/18 03:29:11;;;;;;;0.60;0.60;;;;;;;16.74;72.18;100728.06;5072569;28;20028;-45
2021/09/18 03:31:38;;;;;;;0.63;0.60;;;;;;;16.73;72.05;100730.78;5073588;28;20027;-45
2021/09/18 03:34:04;;;;;;;0.90;0.65;;;;;;;16.72;72.15;100731.72;5072481;28;20107;-46
2021/09/18 03:36:30;;;;;;;0.65;0.65;;;;;;;16.72;72.12;100735.25;5073354;28;20435;-46
2021/09/18 03:38:56;;;;;;;0.60;0.60;;;;;;;16.71;72.16;100730.88;5073034;28;20470;-46
2021/09/18 03:41:21;;;;;;;0.57;0.57;;;;;;;16.72;71.94;100729.03;5072896;28;20060;-46
2021/09/18 03:43:47;;;;;;;0.60;0.60;;;;;;;16.72;72.12;100731.72;5072979;28;20108;-45
2021/09/18 03:46:13;;;;;;;0.60;0.60;;;;;;;16.71;72.08;100724.66;5073370;28;20020;-45
2021/09/18 03:48:39;;;;;;;0.60;0.60;;;;;;;16.71;72.03;100728.19;5072775;28;20520;-45
2021/09/18 03:51:05;;;;;;;0.98;0.70;;;;;;;16.71;72.25;100722.88;5068331;28;20103;-44
2021/09/18 03:53:31;;;;;;;0.70;0.57;;;;;;;16.70;71.98;100721.09;5073212;28;20062;-46
2021/09/18 03:55:58;;;;;;;0.50;0.50;;;;;;;16.70;72.16;100726.44;5072914;28;20016;-47
2021/09/18 03:58:24;;;;;;;0.80;0.80;;;;;;;16.69;72.09;100724.69;5072352;28;20016;-47
2021/09/18 04:00:50;;;;;;;0.60;0.60;;;;;;;16.70;72.10;100726.44;5071174;28;20024;-45
2021/09/18 04:03:16;;;;;;;0.75;0.60;;;;;;;16.68;72.04;100722.97;5067192;28;20070;-48
2021/09/18 04:05:42;;;;;;;0.60;0.60;;;;;;;16.68;72.02;100728.28;5069257;28;20036;-47
2021/09/18 04:08:09;;;;;;;0.52;0.52;;;;;;;16.68;72.15;100723.81;5054549;28;20023;-45
2021/09/18 04:10:36;;;;;;;0.65;0.65;;;;;;;16.67;72.17;100722.09;5072193;28;20081;-46
2021/09/18 04:13:02;;;;;;;0.55;0.55;;;;;;;16.69;72.04;100724.69;5072888;28;20020;-45
2021/09/18 04:15:29;;;;;;;0.77;0.77;;;;;;;16.67;72.01;100722.09;5070556;28;20016;-45
2021/09/18 04:17:54;;;;;;;0.57;0.55;;;;;;;16.66;72.01;100720.34;5072355;28;20039;-45
2021/09/18 04:20:20;;;;;;;1.00;0.68;;;;;;;16.64;72.05;100714.19;5072364;28;20397;-45
2021/09/18 04:22:46;;;;;;;3.83;0.85;;;;;;;16.66;72.05;100716.81;5072551;28;20101;-45
2021/09/18 04:25:13;;;;;;;0.75;0.57;;;;;;;16.65;72.14;100717.75;5072062;28;20162;-45
2021/09/18 04:27:39;;;;;;;0.60;0.60;;;;;;;16.64;72.11;100716.88;5072218;28;20027;-47
2021/09/18 04:30:06;;;;;;;0.60;0.60;;;;;;;16.65;72.11;100723.06;5070533;28;20020;-46
2021/09/18 04:32:32;;;;;;;0.60;0.43;;;;;;;16.64;71.97;100722.19;5072340;28;20036;-49
2021/09/18 04:34:58;;;;;;;0.73;0.73;;;;;;;16.64;72.00;100721.34;5072867;28;20020;-45
2021/09/18 04:37:24;;;;;;;0.50;0.50;;;;;;;16.65;71.91;100720.41;5071339;28;20031;-46
2021/09/18 04:39:50;;;;;;;0.60;0.60;;;;;;;16.64;71.95;100732.84;5071933;28;20025;-45
2021/09/18 04:42:17;;;;;;;0.70;0.70;;;;;;;16.63;71.99;100728.44;5071754;28;20146;-45
2021/09/18 04:44:43;;;;;;;0.70;0.60;;;;;;;16.64;72.15;100738.16;5071438;28;20020;-45
2021/09/18 04:47:09;;;;;;;0.82;0.80;;;;;;;16.64;71.89;100739.97;5053761;28;20028;-46
2021/09/18 04:49:35;;;;;;;0.70;0.70;;;;;;;16.62;71.98;100744.47;5071704;28;20032;-47
2021/09/18 04:52:01;;;;;;;0.85;0.70;;;;;;;16.62;72.01;100739.13;5053815;28;20158;-47
2021/09/18 04:54:27;;;;;;;0.88;0.88;;;;;;;16.62;72.11;100749.78;5072370;28;20095;-47
2021/09/18 04:56:52;;;;;;;0.80;0.80;;;;;;;16.62;72.00;100750.69;5053815;28;20024;-47
2021/09/18 04:59:18;;;;;;;0.55;0.55;;;;;;;16.61;71.94;100742.72;5071295;28;20556;-46
2021/09/18 05:01:44;;;;;;;0.70;0.70;;;;;;;16.62;71.97;100744.47;5072815;28;20028;-45
2021/09/18 05:04:10;;;;;;;0.90;0.90;;;;;;;16.61;71.98;100742.72;5071446;28;20668;-46
2021/09/18 05:06:35;;;;;;;0.80;0.80;;;;;;;16.60;71.92;100752.50;5070929;28;20025;-48
2021/09/18 05:09:01;;;;;;;0.80;0.80;;;;;;;16.59;72.02;100747.22;5071086;28;20020;-46
2021/09/18 05:11:27;;;;;;;0.82;0.82;;;;;;;16.60;71.92;100751.66;5070869;28;20025;-46
2021/09/18 05:13:53;;;;;;;0.60;0.60;;;;;;;16.58;71.87;100749.03;5071465;28;20150;-45
2021/09/18 05:16:19;;;;;;;0.88;0.73;;;;;;;16.59;71.90;100757.88;5071676;28;20044;-47
2021/09/18 05:18:45;;;;;;;1.30;0.93;;;;;;;16.59;72.01;100755.22;5053114;28;20036;-45
2021/09/18 05:21:10;;;;;;;2.03;0.80;;;;;;;16.58;71.66;100756.16;5070982;28;20020;-47
2021/09/18 05:23:36;;;;;;;1.40;0.60;;;;;;;16.58;72.04;100766.78;5070677;28;20159;-46
2021/09/18 05:26:02;;;;;;;0.90;0.82;;;;;;;16.57;71.85;100762.41;5071177;28;20023;-47
2021/09/18 05:28:28;;;;;;;0.73;0.73;;;;;;;16.58;72.03;100769.47;5072288;28;20028;-45
2021/09/18 05:30:54;;;;;;;0.90;0.90;;;;;;;16.57;71.86;100767.72;5071149;28;20028;-46
2021/09/18 05:33:20;;;;;;;0.65;0.65;;;;;;;16.57;71.88;100779.22;5071320;28;20073;-45
2021/09/18 05:35:45;;;;;;;0.95;0.80;;;;;;;16.57;71.78;100778.38;5068114;28;20027;-47
2021/09/18 05:38:11;;;;;;;1.00;0.50;;;;;;;16.55;71.91;100776.59;5070436;28;20517;-46
2021/09/18 05:40:37;;;;;;;0.88;0.80;;;;;;;16.55;71.76;100776.59;5069115;28;20470;-45
2021/09/18 05:43:03;;;;;;;2.80;1.17;;;;;;;16.55;71.74;100779.28;5072472;28;20095;-47
2021/09/18 05:45:29;;;;;;;0.68;0.68;;;;;;;16.55;71.94;100786.41;5054128;28;20107;-47
2021/09/18 05:47:54;;;;;;;1.42;0.93;;;;;;;16.53;72.01;100786.44;5072256;28;20031;-47
2021/09/18 05:50:20;;;;;;;0.70;0.70;;;;;;;16.54;71.83;100788.19;5053734;28;20032;-47
2021/09/18 05:52:46;;;;;;;1.00;0.90;;;;;;;16.54;71.94;100795.31;5073684;28;20020;-48
2021/09/18 05:55:12;;;;;;;0.93;0.90;;;;;;;16.54;72.01;100795.31;5072007;28;20024;-47
2021/09/18 05:57:38;;;;;;;0.93;0.93;;;;;;;16.52;71.91;100792.72;5071868;28;20472;-47
2021/09/18 06:00:04;;;;;;;0.85;0.85;;;;;;;16.53;72.07;100789.13;5071831;28;20024;-47
2021/09/18 06:02:30;;;;;;;1.13;1.02;;;;;;;16.52;71.86;100795.38;5074560;28;20115;-46
2021/09/18 06:04:56;;;;;;;1.02;1.00;;;;;;;16.51;72.01;100784.75;5071329;28;20126;-47
2021/09/18 06:07:22;;;;;;;0.82;0.82;;;;;;;16.51;71.91;100785.63;5071354;28;20032;-47
2021/09/18 06:09:48;;;;;;;1.13;1.00;;;;;;;16.51;71.74;100780.28;5071804;28;20012;-47
2021/09/18 06:12:13;;;;;;;1.13;1.02;;;;;;;16.50;71.94;100783.00;5072028;28;20032;-47
2021/09/18 06:14:39;;;;;;;1.05;1.05;;;;;;;16.49;71.78;100782.16;5072158;28;20063;-48
2021/09/18 06:17:05;;;;;;;1.13;1.02;;;;;;;16.50;71.86;100781.22;5070942;28;20082;-47
2021/09/18 06:19:31;;;;;;;1.05;0.90;;;;;;;16.50;71.83;100785.66;5071540;28;20024;-47
2021/09/18 06:21:57;;;;;;;1.33;1.23;;;;;;;16.50;71.95;100785.66;5071968;28;20031;-47
2021/09/18 06:24:23;;;;;;;1.58;1.27;;;;;;;16.48;72.00;100779.53;5071905;28;20032;-46
2021/09/18 06:26:48;;;;;;;1.65;1.20;;;;;;;16.48;71.87;100784.84;5071441;28;20012;-47
2021/09/18 06:29:14;;;;;;;1.17;1.08;;;;;;;16.49;71.94;100775.94;5071553;28;20056;-47
2021/09/18 06:31:40;;;;;;;1.50;1.40;;;;;;;16.50;71.74;100783.00;5068608;28;20039;-47
2021/09/18 06:34:06;;;;;;;1.27;1.17;;;;;;;16.47;71.97;100789.31;5071218;28;20521;-47
2021/09/18 06:36:32;;;;;;;1.60;1.17;;;;;;;16.47;71.83;100783.13;5071211;28;20032;-47
2021/09/18 06:38:58;;;;;;;1.10;1.00;;;;;;;16.47;71.92;100793.78;5071327;28;20024;-47
2021/09/18 06:41:24;;;;;;;1.20;1.10;;;;;;;16.45;71.80;100785.84;5071479;28;20016;-47
2021/09/18 06:43:50;;;;;;;1.30;1.20;;;;;;;16.45;71.73;100790.28;5071642;28;20028;-46
2021/09/18 06:46:16;;;;;;;2.15;1.35;;;;;;;16.45;71.83;100792.94;5070801;28;20074;-48
2021/09/18 06:48:42;;;;;;;1.63;1.45;;;;;;;16.44;71.80;100794.72;5074460;28;20122;-47
2021/09/18 06:51:08;;;;;;;1.52;1.33;;;;;;;16.44;71.84;100789.38;5070961;28;20128;-47
2021/09/18 06:53:34;;;;;;;1.20;1.10;;;;;;;16.44;71.75;100792.06;5071765;28;20024;-47
2021/09/18 06:56:00;;;;;;;1.10;1.00;;;;;;;16.44;71.83;100800.03;5071129;28;20037;-47
2021/09/18 06:58:25;;;;;;;1.20;1.10;;;;;;;16.45;71.78;100800.91;5071182;28;20074;-47
2021/09/18 07:00:51;;;;;;;1.85;1.20;;;;;;;16.45;71.79;100801.81;5071591;28;20506;-47
2021/09/18 07:03:17;;;;;;;1.50;1.40;;;;;;;16.43;71.88;100803.63;5070973;28;20027;-47
2021/09/18 07:05:43;;;;;;;1.55;1.40;;;;;;;16.42;71.84;100801.91;5070760;28;20444;-47
2021/09/18 07:08:09;;;;;;;1.85;1.63;;;;;;;16.42;71.77;100809.88;5070075;28;20028;-47
2021/09/18 07:10:35;;;;;;;1.48;1.38;;;;;;;16.41;71.91;100806.34;5070863;28;20177;-47
2021/09/18 07:13:00;;;;;;;1.75;1.40;;;;;;;16.42;71.94;100807.22;5071017;28;20050;-47
2021/09/18 07:15:27;;;;;;;1.65;1.55;;;;;;;16.39;71.79;100808.19;5072028;28;20028;-47
2021/09/18 07:17:53;;;;;;;1.75;1.65;;;;;;;16.40;71.79;100809.03;5071017;28;20024;-47
2021/09/18 07:20:19;;;;;;;1.40;1.20;;;;;;;16.40;72.00;100814.38;5070119;28;20055;-47
2021/09/18 07:22:45;;;;;;;1.63;1.52;;;;;;;16.40;71.90;100815.25;5070837;28;20017;-47
2021/09/18 07:25:11;;;;;;;1.60;1.48;;;;;;;16.38;72.02;100813.56;5049471;28;20066;-48
2021/09/18 07:27:38;;;;;;;1.58;1.30;;;;;;;16.37;71.99;100827.81;5070743;28;20066;-47
2021/09/18 07:30:05;;;;;;;1.65;1.33;;;;;;;16.36;71.87;100824.25;5070142;28;20024;-47
2021/09/18 07:32:31;;;;;;;1.80;1.30;;;;;;;16.37;72.19;100820.66;5071118;28;20070;-46
2021/09/18 07:34:56;;;;;;;1.65;1.50;;;;;;;16.37;71.88;100819.81;5070779;28;20017;-46
2021/09/18 07:37:22;;;;;;;1.70;1.40;;;;;;;16.38;71.80;100821.53;5070998;28;20047;-47
2021/09/18 07:39:48;;;;;;;2.13;1.30;;;;;;;16.39;71.96;100820.63;5070475;28;20111;-48
2021/09/18 07:42:14;;;;;;;2.22;1.52;;;;;;;16.37;71.94;100825.13;5070240;28;20035;-47
2021/09/18 07:44:40;;;;;;;3.22;1.60;;;;;;;16.37;72.27;100827.81;5067570;28;20017;-47
2021/09/18 07:47:06;;;;;;;2.17;1.40;;;;;;;16.35;71.91;100817.19;5070388;28;20016;-46
2021/09/18 07:49:32;;;;;;;1.58;1.48;;;;;;;16.37;71.89;100822.47;5070735;28;20022;-47
2021/09/18 07:51:58;;;;;;;1.52;1.42;;;;;;;16.36;71.74;100828.69;5071098;28;20173;-47
2021/09/18 07:54:24;;;;;;;1.35;1.20;;;;;;;16.37;71.81;100830.47;5070787;28;20017;-48
2021/09/18 07:56:49;;;;;;;1.40;1.30;;;;;;;16.35;71.95;100830.50;5070626;28;20028;-47
2021/09/18 07:59:15;;;;;;;1.90;1.48;;;;;;;16.34;71.86;100834.06;5070097;28;20023;-47
2021/09/18 08:01:41;;;;;;;1.70;1.60;;;;;;;16.34;72.01;100828.75;5070041;28;20064;-47
2021/09/18 08:04:07;;;;;;;1.30;1.20;;;;;;;16.35;71.91;100821.63;5072379;28;20085;-47
2021/09/18 08:06:35;;;;;;;1.48;1.38;;;;;;;16.34;72.03;100834.06;5074525;28;20394;-47
2021/09/18 08:09:05;;;;;;;1.55;1.45;;;;;;;16.34;71.99;100841.19;5074131;28;20016;-46
2021/09/18 08:11:31;;;;;;;1.67;1.50;;;;;;;16.32;72.01;100827.94;5073107;28;20470;-47
2021/09/18 08:13:57;;;;;;;1.70;1.60;;;;;;;16.33;72.00;100839.44;5074175;28;20032;-47
2021/09/18 08:16:24;;;;;;;1.58;1.48;;;;;;;16.32;71.99;100838.56;5074026;28;20036;-47
2021/09/18 08:18:50;;;;;;;1.67;1.58;;;;;;;16.32;72.14;100841.25;5052689;28;20437;-47
2021/09/18 08:21:16;;;;;;;1.35;1.13;;;;;;;16.32;71.95;100848.34;5056511;28;20115;-47
2021/09/18 08:23:42;;;;;;;1.60;1.50;;;;;;;16.31;72.18;100847.50;5073317;28;20024;-47
2021/09/18 08:26:09;;;;;;;1.70;1.60;;;;;;;16.31;72.17;100851.94;5073076;28;20028;-47
2021/09/18 08:28:35;;;;;;;1.67;1.58;;;;;;;16.31;72.11;100851.94;5073848;28;20393;-47
2021/09/18 08:31:01;;;;;;;2.33;1.77;;;;;;;16.29;72.19;100844.88;5073294;28;20013;-48
2021/09/18 08:33:27;;;;;;;1.25;1.20;;;;;;;16.31;72.17;100854.59;5073793;28;20097;-47
2021/09/18 08:35:53;;;;;;;2.17;1.58;;;;;;;16.31;72.18;100851.94;5073131;28;20547;-47
2021/09/18 08:38:20;;;;;;;1.85;1.75;;;;;;;16.29;72.25;100850.19;5072673;28;20044;-47
2021/09/18 08:40:48;;;;;;;1.58;1.48;;;;;;;16.31;72.32;100850.16;5073379;28;20020;-47
2021/09/18 08:43:14;;;;;;;1.75;1.65;;;;;;;16.31;72.23;100857.25;5072915;28;20073;-47
2021/09/18 08:45:40;;;;;;;1.85;1.75;;;;;;;16.29;72.22;100857.28;5055112;28;20028;-47
2021/09/18 08:48:07;;;;;;;2.80;2.55;;;;;;;16.31;72.14;100851.94;5072546;28;20020;-47
2021/09/18 08:50:34;;;;;;;2.05;1.92;;;;;;;16.29;72.25;100855.50;5072109;28;20058;-47
2021/09/18 08:53:00;;;;;;;1.90;1.70;;;;;;;16.30;72.31;100856.38;5055122;28;20074;-47
2021/09/18 08:55:26;;;;;;;1.63;1.52;;;;;;;16.29;72.20;100859.94;5054571;28;20020;-48
2021/09/18 08:57:52;;;;;;;2.05;1.45;;;;;;;16.28;72.17;100852.91;5072039;28;20021;-47
2021/09/18 09:00:32;;;;;;;1.95;1.85;;;;;;;16.27;72.16;100857.34;5053719;28;20098;-47
2021/09/18 09:03:08;;;;;;;1.80;1.70;;;;;;;16.26;72.35;100860.03;5069765;28;20036;-47
2021/09/18 09:05:42;;;;;;;1.90;1.77;;;;;;;16.28;72.19;100867.06;5070249;28;20492;-47
2021/09/18 09:08:08;;;;;;;2.28;2.08;;;;;;;16.25;72.34;100864.50;5071710;28;20032;-47
2021/09/18 09:10:34;;;;;;;1.90;1.80;;;;;;;16.26;72.42;100855.59;5071153;28;20029;-47
2021/09/18 09:13:11;;;;;;;2.33;2.08;;;;;;;16.28;72.35;100858.22;5072348;28;20390;-47
2021/09/18 09:15:38;;;;;;;2.80;2.60;;;;;;;16.27;72.21;100857.34;5069069;28;20021;-47
2021/09/18 09:18:22;;;;;;;2.75;1.80;;;;;;;16.25;72.50;100853.88;5071601;28;20021;-47
2021/09/18 09:20:50;;;;;;;2.22;2.13;;;;;;;16.27;72.49;100860.00;5072623;28;20033;-47
2021/09/18 09:23:21;;;;;;;1.80;1.70;;;;;;;16.27;72.45;100867.97;5054169;28;20020;-46
2021/09/18 09:25:51;;;;;;;2.15;1.95;;;;;;;16.27;72.31;100856.44;5069547;28;20031;-47
2021/09/18 09:28:31;;;;;;;2.40;2.20;;;;;;;16.26;72.52;100863.59;5072228;28;20435;-47
2021/09/18 09:31:09;;;;;;;2.13;2.00;;;;;;;16.26;72.43;100868.91;5070147;28;20016;-47
2021/09/18 09:33:35;;;;;;;2.17;2.08;;;;;;;16.26;72.46;100863.59;5070885;28;20389;-47
2021/09/18 09:36:16;;;;;;;2.20;2.10;;;;;;;16.27;72.38;100862.66;5072134;28;20107;-47
2021/09/18 09:38:52;;;;;;;2.60;2.40;;;;;;;16.27;72.36;100867.97;5071682;28;20035;-47
2021/09/18 09:41:34;;;;;;;2.15;2.05;;;;;;;16.26;72.43;100871.56;5071934;28;20111;-47
2021/09/18 09:44:08;;;;;;;2.70;2.50;;;;;;;16.25;72.62;100869.84;5068992;28;20103;-47
2021/09/18 09:46:34;;;;;;;2.28;2.15;;;;;;;16.25;72.45;100868.94;5069998;28;20375;-47
2021/09/18 09:49:08;;;;;;;2.20;2.10;;;;;;;16.26;72.76;100866.25;5071933;28;20032;-47
2021/09/18 09:51:33;;;;;;;2.80;2.60;;;;;;;16.26;72.49;100870.69;5071824;28;20032;-47
2021/09/18 09:54:24;;;;;;;2.40;2.20;;;;;;;16.25;72.45;100872.50;5054102;28;20023;-45
2021/09/18 09:57:06;;;;;;;3.17;2.63;;;;;;;16.25;72.37;100871.63;5070906;28;20070;-47
2021/09/18 09:59:32;;;;;;;2.42;2.22;;;;;;;16.24;72.46;100876.06;5071588;28;20524;-47
2021/09/18 10:01:58;;;;;;;3.40;2.50;;;;;;;16.24;72.49;100870.72;5071440;28;20095;-47
2021/09/18 10:04:24;;;;;;;2.63;2.42;;;;;;;16.25;72.52;100871.63;5072226;28;20024;-47
2021/09/18 10:06:50;;;;;;;3.03;2.40;;;;;;;16.27;72.61;100877.75;5071799;28;20153;-47
2021/09/18 10:09:16;;;;;;;2.65;2.45;;;;;;;16.26;72.47;100871.56;5071854;28;20029;-47
2021/09/18 10:11:43;;;;;;;2.70;2.50;;;;;;;16.26;72.60;100870.69;5052955;28;20105;-47
2021/09/18 10:14:14;;;;;;;3.15;2.92;;;;;;;16.24;72.56;100873.38;5071340;28;20556;-47
2021/09/18 10:16:40;;;;;;;2.90;2.58;;;;;;;16.26;72.55;100884.88;5071717;28;20039;-47
2021/09/18 10:19:09;;;;;;;3.00;2.80;;;;;;;16.26;72.46;100882.22;5068796;28;20101;-47
2021/09/18 10:24:20;;;;;;;3.42;2.45;;;;;;;16.27;72.42;100875.97;5071598;28;20090;-47
2021/09/18 10:27:13;;;;;;;3.38;3.13;;;;;;;16.27;72.47;100877.75;5052975;28;20017;-47
2021/09/18 10:29:39;;;;;;;3.33;3.03;;;;;;;16.26;72.42;100884.88;5052987;28;20024;-47
2021/09/18 10:32:05;;;;;;;2.70;2.50;;;;;;;16.26;72.48;100878.66;5071308;28;20103;-47
2021/09/18 10:34:30;;;;;;;2.90;2.67;;;;;;;16.24;72.48;100872.53;5069139;28;20055;-47
2021/09/18 10:36:56;;;;;;;3.25;3.05;;;;;;;16.25;72.49;100876.94;5071576;28;20020;-47
2021/09/18 10:39:22;;;;;;;3.30;3.10;;;;;;;16.25;72.50;100872.50;5070880;28;20089;-48
2021/09/18 10:41:50;;;;;;;3.08;2.85;;;;;;;16.26;72.59;100876.88;5071327;28;20409;-47
2021/09/18 10:44:19;;;;;;;3.40;3.10;;;;;;;16.25;72.54;100885.81;5071516;28;20082;-47
2021/09/18 10:46:53;;;;;;;3.03;2.83;;;;;;;16.25;72.56;100875.16;5071537;28;20069;-47
2021/09/18 10:49:31;;;;;;;3.33;3.13;;;;;;;16.25;72.46;100879.59;5071106;28;20016;-47
2021/09/18 10:52:29;;;;;;;3.72;3.53;;;;;;;16.26;72.45;100881.34;5070383;28;20085;-47
2021/09/18 10:55:10;;;;;;;3.47;3.17;;;;;;;16.24;72.52;100877.88;5052142;28;20020;-47
2021/09/18 10:57:39;;;;;;;3.42;3.13;;;;;;;16.25;72.72;100884.91;5070251;28;20557;-47
2021/09/18 11:00:20;;;;;;;3.53;3.22;;;;;;;16.25;72.44;100879.59;5072201;28;20036;-47
2021/09/18 11:02:53;;;;;;;3.75;3.45;;;;;;;16.25;72.75;100883.13;5069012;28;20115;-47
2021/09/18 11:05:21;;;;;;;3.60;3.35;;;;;;;16.26;72.70;100892.84;5069900;28;20470;-47
2021/09/18 11:07:52;;;;;;;3.55;3.25;;;;;;;16.27;72.64;100889.28;5068539;28;20024;-47
2021/09/18 11:10:21;;;;;;;3.72;3.42;;;;;;;16.25;72.83;100885.81;5071919;28;20039;-47
2021/09/18 11:13:08;;;;;;;3.70;3.40;;;;;;;16.26;72.55;100887.53;5071118;28;20173;-47
2021/09/18 11:15:49;;;;;;;3.92;3.47;;;;;;;16.26;72.75;100891.97;5069254;28;20073;-47
2021/09/18 11:18:15;;;;;;;4.10;3.70;;;;;;;16.26;72.77;100897.31;5071048;28;20428;-47
2021/09/18 11:20:42;;;;;;;3.58;3.28;;;;;;;16.26;72.65;100894.63;5070934;28;20051;-47
2021/09/18 11:23:09;;;;;;;3.83;3.53;;;;;;;16.25;72.73;100890.25;5070855;28;20103;-47
2021/09/18 11:25:36;;;;;;;3.90;3.60;;;;;;;16.27;72.84;100891.06;5069560;28;20024;-47
2021/09/18 11:28:06;;;;;;;3.97;3.67;;;;;;;16.27;72.88;100888.38;5067881;28;20434;-46